createdAt,value
2022-12-09T00:01:17.783Z,-6.26
2022-12-09T00:03:45.133Z,-6.26
2022-12-09T00:06:16.531Z,-6.27
2022-12-09T00:08:44.432Z,-6.27
2022-12-09T00:11:11.798Z,-6.28
2022-12-09T00:13:38.809Z,-6.26
2022-12-09T00:16:14.041Z,-6.26
2022-12-09T00:18:41.841Z,-6.29
2022-12-09T00:21:20.002Z,-6.31
2022-12-09T00:23:48.191Z,-6.38
2022-12-09T00:26:16.390Z,-6.26
2022-12-09T00:28:43.859Z,-6.24
2022-12-09T00:31:14.822Z,-6.21
2022-12-09T00:33:42.300Z,-6.20
2022-12-09T00:36:15.702Z,-6.16
2022-12-09T00:38:43.236Z,-6.19
2022-12-09T00:41:11.097Z,-6.21
2022-12-09T00:43:38.168Z,-6.24
2022-12-09T00:46:06.034Z,-6.21
2022-12-09T00:48:38.673Z,-6.16
2022-12-09T00:51:07.765Z,-6.13
2022-12-09T00:53:34.853Z,-6.07
2022-12-09T00:56:02.202Z,-6.04
2022-12-09T00:58:29.247Z,-6.08
2022-12-09T01:00:56.302Z,-6.11
2022-12-09T01:03:24.380Z,-6.08
2022-12-09T01:05:51.667Z,-6.04
2022-12-09T01:08:19.302Z,-6.04
2022-12-09T01:10:46.839Z,-6.01
2022-12-09T01:13:14.907Z,-5.98
2022-12-09T01:15:42.455Z,-5.98
2022-12-09T01:18:11.124Z,-5.95
2022-12-09T01:20:38.375Z,-5.92
2022-12-09T01:23:05.447Z,-5.89
2022-12-09T01:25:32.833Z,-5.93
2022-12-09T01:28:00.448Z,-5.95
2022-12-09T01:30:27.749Z,-5.94
2022-12-09T01:32:54.821Z,-5.93
2022-12-09T01:35:21.848Z,-6.00
2022-12-09T01:37:49.237Z,-6.04
2022-12-09T01:40:17.717Z,-6.04
2022-12-09T01:42:45.540Z,-6.07
2022-12-09T01:45:22.224Z,-6.06
2022-12-09T01:48:04.608Z,-6.08
2022-12-09T01:50:33.268Z,-6.07
2022-12-09T01:53:00.472Z,-6.06
2022-12-09T01:55:28.419Z,-6.10
2022-12-09T01:57:56.154Z,-6.07
2022-12-09T02:00:23.523Z,-6.11
2022-12-09T02:02:51.795Z,-6.04
2022-12-09T02:05:20.319Z,-6.04
2022-12-09T02:07:53.653Z,-6.04
2022-12-09T02:10:21.214Z,-6.00
2022-12-09T02:13:45.019Z,-5.99
2022-12-09T02:16:17.243Z,-6.00
2022-12-09T02:18:52.469Z,-6.01
2022-12-09T02:21:43.365Z,-5.97
2022-12-09T02:24:20.797Z,-5.97
2022-12-09T02:26:56.335Z,-5.99
2022-12-09T02:29:44.995Z,-5.99
2022-12-09T02:32:40.085Z,-6.02
2022-12-09T02:35:21.887Z,-6.05
2022-12-09T02:38:05.592Z,-6.00
2022-12-09T02:40:54.852Z,-6.00
2022-12-09T02:43:26.834Z,-6.03
2022-12-09T02:45:56.729Z,-6.07
2022-12-09T02:48:27.044Z,-6.09
2022-12-09T02:50:54.660Z,-6.09
2022-12-09T02:53:23.504Z,-6.11
2022-12-09T02:55:51.949Z,-6.08
2022-12-09T02:58:20.222Z,-6.03
2022-12-09T03:00:47.931Z,-5.99
2022-12-09T03:03:17.001Z,-5.98
2022-12-09T03:05:57.654Z,-5.94
2022-12-09T03:08:43.323Z,-5.97
2022-12-09T03:11:10.772Z,-5.96
2022-12-09T03:13:48.202Z,-5.93
2022-12-09T03:16:23.813Z,-5.93
2022-12-09T03:19:08.386Z,-5.92
2022-12-09T03:21:40.205Z,-5.93
2022-12-09T03:24:09.101Z,-5.95
2022-12-09T03:26:38.354Z,-5.97
2022-12-09T03:29:11.619Z,-5.94
2022-12-09T03:31:39.629Z,-5.90
2022-12-09T03:34:07.787Z,-5.92
2022-12-09T03:36:38.509Z,-5.90
2022-12-09T03:39:12.203Z,-5.88
2022-12-09T03:41:45.002Z,-5.88
2022-12-09T03:44:16.966Z,-5.87
2022-12-09T03:46:44.475Z,-5.84
2022-12-09T03:49:12.203Z,-5.85
2022-12-09T03:51:52.267Z,-5.84
2022-12-09T03:54:55.278Z,-5.85
2022-12-09T03:57:23.188Z,-5.87
2022-12-09T03:59:58.057Z,-5.86
2022-12-09T04:02:25.492Z,-5.88
2022-12-09T04:04:53.449Z,-5.98
2022-12-09T04:07:20.799Z,-5.96
2022-12-09T04:09:47.888Z,-5.92
2022-12-09T04:12:15.744Z,-5.93
2022-12-09T04:14:43.360Z,-6.00
2022-12-09T04:17:11.221Z,-5.96
2022-12-09T04:19:41.967Z,-5.93
2022-12-09T04:22:09.125Z,-5.97
2022-12-09T04:24:36.270Z,-5.97
2022-12-09T04:27:03.632Z,-5.95
2022-12-09T04:29:30.799Z,-5.95
2022-12-09T04:31:58.050Z,-5.93
2022-12-09T04:34:25.251Z,-5.91
2022-12-09T04:36:52.338Z,-5.92
2022-12-09T04:39:19.750Z,-5.87
2022-12-09T04:41:46.818Z,-5.82
2022-12-09T04:44:14.122Z,-5.82
2022-12-09T04:46:41.347Z,-5.79
2022-12-09T04:49:08.925Z,-5.80
2022-12-09T04:51:39.877Z,-5.78
2022-12-09T04:54:08.030Z,-5.84
2022-12-09T04:56:35.072Z,-5.86
2022-12-09T04:59:02.453Z,-5.86
2022-12-09T05:01:31.408Z,-5.88
2022-12-09T05:03:59.874Z,-5.90
2022-12-09T05:06:29.452Z,-5.84
2022-12-09T05:08:57.348Z,-5.92
2022-12-09T05:11:25.071Z,-5.98
2022-12-09T05:13:55.220Z,-5.90
2022-12-09T05:16:23.163Z,-5.79
2022-12-09T05:18:50.679Z,-5.77
2022-12-09T05:21:19.489Z,-5.74
2022-12-09T05:23:47.267Z,-5.75
2022-12-09T05:26:16.742Z,-5.71
2022-12-09T05:28:46.225Z,-5.71
2022-12-09T05:31:17.133Z,-5.66
2022-12-09T05:33:45.952Z,-5.62
2022-12-09T05:36:15.061Z,-5.60
2022-12-09T05:38:42.686Z,-5.66
2022-12-09T05:41:10.402Z,-5.76
2022-12-09T05:43:38.367Z,-5.67
2022-12-09T05:46:07.022Z,-5.69
2022-12-09T05:48:35.312Z,-5.67
2022-12-09T05:51:12.620Z,-5.63
2022-12-09T05:53:40.238Z,-5.64
2022-12-09T05:56:07.604Z,-5.66
2022-12-09T05:58:35.159Z,-5.66
2022-12-09T06:01:07.193Z,-5.65
2022-12-09T06:03:36.808Z,-5.69
2022-12-09T06:06:12.912Z,-5.60
2022-12-09T06:08:41.912Z,-5.57
2022-12-09T06:11:17.422Z,-5.57
2022-12-09T06:13:45.438Z,-5.57
2022-12-09T06:16:14.708Z,-5.54
2022-12-09T06:18:42.018Z,-5.56
2022-12-09T06:21:11.448Z,-5.50
2022-12-09T06:23:41.399Z,-5.50
2022-12-09T06:26:16.617Z,-5.43
2022-12-09T06:28:44.569Z,-5.36
2022-12-09T06:31:11.730Z,-5.36
2022-12-09T06:33:54.622Z,-5.32
2022-12-09T06:36:24.157Z,-5.35
2022-12-09T06:38:54.753Z,-5.33
2022-12-09T06:41:23.788Z,-5.27
2022-12-09T06:43:51.366Z,-5.29
2022-12-09T06:46:26.113Z,-5.32
2022-12-09T06:48:54.716Z,-5.34
2022-12-09T06:51:24.395Z,-5.29
2022-12-09T06:53:52.037Z,-5.24
2022-12-09T06:56:19.692Z,-5.18
2022-12-09T06:58:47.457Z,-5.23
2022-12-09T07:01:22.998Z,-5.22
2022-12-09T07:03:54.399Z,-5.21
2022-12-09T07:06:27.818Z,-5.29
2022-12-09T07:08:58.300Z,-5.28
2022-12-09T07:11:25.701Z,-5.32
2022-12-09T07:13:53.005Z,-5.27
2022-12-09T07:16:20.236Z,-5.29
2022-12-09T07:18:47.709Z,-5.21
2022-12-09T07:21:19.438Z,-5.27
2022-12-09T07:23:48.445Z,-5.25
2022-12-09T07:26:16.974Z,-5.17
2022-12-09T07:28:44.428Z,-5.16
2022-12-09T07:31:25.701Z,-5.19
2022-12-09T07:33:56.450Z,-5.20
2022-12-09T07:36:26.500Z,-5.18
2022-12-09T07:39:02.352Z,-5.17
2022-12-09T07:41:29.832Z,-5.21
2022-12-09T07:43:59.158Z,-5.15
2022-12-09T07:46:28.093Z,-5.14
2022-12-09T07:48:57.367Z,-5.16
2022-12-09T07:51:25.414Z,-5.12
2022-12-09T07:53:53.734Z,-5.12
2022-12-09T07:56:22.400Z,-5.15
2022-12-09T07:58:51.385Z,-5.12
2022-12-09T08:01:21.228Z,-5.12
2022-12-09T08:03:49.637Z,-5.10
2022-12-09T08:06:19.292Z,-5.13
2022-12-09T08:08:47.333Z,-5.11
2022-12-09T08:11:18.137Z,-5.16
2022-12-09T08:13:45.689Z,-5.16
2022-12-09T08:16:15.100Z,-5.09
2022-12-09T08:18:43.054Z,-5.02
2022-12-09T08:21:21.359Z,-5.03
2022-12-09T08:23:49.401Z,-4.98
2022-12-09T08:26:19.962Z,-4.95
2022-12-09T08:28:47.765Z,-4.84
2022-12-09T08:31:25.028Z,-4.73
2022-12-09T08:33:53.808Z,-4.71
2022-12-09T08:36:24.035Z,-4.60
2022-12-09T08:38:54.471Z,-4.60
2022-12-09T08:41:35.980Z,-4.54
2022-12-09T08:44:07.190Z,-4.52
2022-12-09T08:46:35.764Z,-4.48
2022-12-09T08:49:03.752Z,-4.45
2022-12-09T08:51:31.781Z,-4.43
2022-12-09T08:53:59.572Z,-4.47
2022-12-09T08:56:27.081Z,-4.53
2022-12-09T08:58:55.535Z,-4.46
2022-12-09T09:01:25.132Z,-4.50
2022-12-09T09:03:52.945Z,-4.52
2022-12-09T09:06:20.440Z,-4.48
2022-12-09T09:08:48.024Z,-4.47
2022-12-09T09:11:19.721Z,-4.55
2022-12-09T09:13:48.779Z,-4.62
2022-12-09T09:16:18.751Z,-4.63
2022-12-09T09:18:47.399Z,-4.64
2022-12-09T09:21:17.015Z,-4.67
2022-12-09T09:23:44.783Z,-4.77
2022-12-09T09:26:14.482Z,-4.75
2022-12-09T09:28:41.970Z,-4.79
2022-12-09T09:31:12.558Z,-4.76
2022-12-09T09:33:39.938Z,-4.68
2022-12-09T09:36:10.604Z,-4.54
2022-12-09T09:38:40.238Z,-4.46
2022-12-09T09:41:20.311Z,-4.33
2022-12-09T09:43:47.811Z,-4.27
2022-12-09T09:46:25.013Z,-4.25
2022-12-09T09:48:53.166Z,-4.24
2022-12-09T09:51:21.887Z,-4.17
2022-12-09T09:53:51.335Z,-4.22
2022-12-09T09:56:30.665Z,-4.22
2022-12-09T09:59:27.096Z,-4.21
2022-12-09T10:02:03.195Z,-4.16
2022-12-09T10:04:58.127Z,-4.10
2022-12-09T10:07:43.722Z,-4.08
2022-12-09T10:10:17.229Z,-4.09
2022-12-09T10:12:50.787Z,-4.12
2022-12-09T10:15:29.506Z,-4.11
2022-12-09T10:18:11.963Z,-4.07
2022-12-09T10:20:40.004Z,-4.19
2022-12-09T10:23:12.923Z,-4.17
2022-12-09T10:25:49.993Z,-4.09
2022-12-09T10:28:37.237Z,-4.12
2022-12-09T10:31:04.780Z,-4.16
2022-12-09T10:33:39.986Z,-4.37
2022-12-09T10:36:20.781Z,-4.34
2022-12-09T10:38:48.725Z,-4.26
2022-12-09T10:41:59.085Z,-4.20
2022-12-09T10:44:27.565Z,-4.23
2022-12-09T10:47:06.327Z,-4.16
2022-12-09T10:52:22.990Z,-4.22
2022-12-09T10:54:50.224Z,-4.24
2022-12-09T10:57:17.724Z,-4.21
2022-12-09T11:00:21.702Z,-4.27
2022-12-09T11:02:54.743Z,-4.30
2022-12-09T11:05:36.751Z,-4.42
2022-12-09T11:08:04.988Z,-4.34
2022-12-09T11:10:33.288Z,-4.32
2022-12-09T11:13:09.003Z,-4.29
2022-12-09T11:15:36.065Z,-4.27
2022-12-09T11:18:04.695Z,-4.35
2022-12-09T11:20:33.700Z,-4.47
2022-12-09T11:23:07.323Z,-4.46
2022-12-09T11:25:36.831Z,-4.48
2022-12-09T11:28:16.555Z,-4.45
2022-12-09T11:31:27.262Z,-4.50
2022-12-09T11:33:52.121Z,-4.53
2022-12-09T11:36:29.922Z,-4.56
2022-12-09T11:39:28.789Z,-4.54
2022-12-09T11:42:17.179Z,-4.57
2022-12-09T11:44:50.494Z,-4.58
2022-12-09T11:47:24.595Z,-4.58
2022-12-09T11:49:56.676Z,-4.65
2022-12-09T11:52:27.355Z,-4.69
2022-12-09T11:55:18.768Z,-4.68
2022-12-09T11:57:52.490Z,-4.67
2022-12-09T12:00:23.110Z,-4.67
2022-12-09T12:03:04.967Z,-4.72
2022-12-09T12:05:34.827Z,-4.84
2022-12-09T12:08:07.967Z,-4.90
2022-12-09T12:10:39.843Z,-4.97
2022-12-09T12:13:29.607Z,-4.91
2022-12-09T12:16:05.595Z,-4.92
2022-12-09T12:19:06.912Z,-4.91
2022-12-09T12:22:11.574Z,-5.02
2022-12-09T12:24:58.272Z,-5.05
2022-12-09T12:27:44.990Z,-5.01
2022-12-09T12:30:20.177Z,-5.02
2022-12-09T12:33:40.795Z,-5.04
2022-12-09T12:36:01.181Z,-5.14
2022-12-09T12:39:05.330Z,-5.07
2022-12-09T12:41:42.761Z,-5.09
2022-12-09T12:44:41.895Z,-5.12
2022-12-09T12:47:18.191Z,-5.14
2022-12-09T12:50:01.399Z,-5.12
2022-12-09T12:52:56.377Z,-5.10
2022-12-09T12:55:54.506Z,-5.09
2022-12-09T12:59:04.258Z,-5.15
2022-12-09T13:01:53.650Z,-5.21
2022-12-09T13:04:40.478Z,-5.23
2022-12-09T13:07:41.060Z,-5.28
2022-12-09T13:10:24.165Z,-5.29
2022-12-09T13:13:01.714Z,-5.27
2022-12-09T13:15:36.751Z,-5.24
2022-12-09T13:18:29.753Z,-5.23
2022-12-09T13:20:58.946Z,-5.29
2022-12-09T13:23:50.403Z,-5.32
2022-12-09T13:26:20.507Z,-5.30
2022-12-09T13:28:55.315Z,-5.28
2022-12-09T13:31:23.981Z,-5.30
2022-12-09T13:34:19.351Z,-5.33
2022-12-09T13:36:48.399Z,-5.31
2022-12-09T13:39:40.224Z,-5.28
2022-12-09T13:42:47.071Z,-5.28
2022-12-09T13:45:23.919Z,-5.35
2022-12-09T13:47:53.456Z,-5.44
2022-12-09T13:50:36.801Z,-5.46
2022-12-09T13:53:27.119Z,-5.41
2022-12-09T13:56:06.390Z,-5.36
2022-12-09T13:58:46.556Z,-5.34
2022-12-09T14:01:13.699Z,-5.34
2022-12-09T14:04:16.045Z,-5.37
2022-12-09T14:06:46.396Z,-5.32
2022-12-09T14:09:31.420Z,-5.36
2022-12-09T14:12:00.867Z,-5.41
2022-12-09T14:14:27.779Z,-5.39
2022-12-09T14:16:56.766Z,-5.49
2022-12-09T14:19:26.584Z,-5.49
2022-12-09T14:22:19.310Z,-5.45
2022-12-09T14:24:58.855Z,-5.55
2022-12-09T14:27:31.045Z,-5.64
2022-12-09T14:30:02.051Z,-5.56
2022-12-09T14:32:53.887Z,-5.49
2022-12-09T14:35:45.198Z,-5.49
2022-12-09T14:38:30.193Z,-5.48
2022-12-09T14:41:28.041Z,-5.58
2022-12-09T14:44:03.758Z,-5.67
2022-12-09T14:46:41.386Z,-5.66
2022-12-09T14:49:26.259Z,-5.61
2022-12-09T14:51:59.384Z,-5.67
2022-12-09T14:54:36.313Z,-5.60
2022-12-09T14:57:07.349Z,-5.63
2022-12-09T14:59:34.737Z,-5.59
2022-12-09T15:02:15.203Z,-5.66
2022-12-09T15:04:49.874Z,-5.54
2022-12-09T15:07:27.511Z,-5.52
2022-12-09T15:09:57.189Z,-5.54
2022-12-09T15:12:37.033Z,-5.51
2022-12-09T15:15:10.301Z,-5.53
2022-12-09T15:17:59.816Z,-5.55
2022-12-09T15:20:32.093Z,-5.57
2022-12-09T15:23:45.238Z,-5.54
2022-12-09T15:26:39.242Z,-5.47
2022-12-09T15:29:06.681Z,-5.54
2022-12-09T15:31:34.792Z,-5.56
2022-12-09T15:34:11.580Z,-5.56
2022-12-09T15:36:42.050Z,-5.56
2022-12-09T15:39:12.005Z,-5.52
2022-12-09T15:42:12.075Z,-5.54
2022-12-09T15:44:41.340Z,-5.49
2022-12-09T15:47:15.413Z,-5.57
2022-12-09T15:49:54.172Z,-5.48
2022-12-09T15:52:28.049Z,-5.45
2022-12-09T15:54:55.423Z,-5.38
2022-12-09T15:57:22.782Z,-5.51
2022-12-09T15:59:56.420Z,-5.51
2022-12-09T16:02:29.323Z,-5.42
2022-12-09T16:05:00.737Z,-5.52
2022-12-09T16:07:28.026Z,-5.64
2022-12-09T16:10:13.341Z,-5.49
2022-12-09T16:12:41.514Z,-5.55
2022-12-09T16:15:14.233Z,-5.47
2022-12-09T16:17:56.142Z,-5.42
2022-12-09T16:20:36.204Z,-5.36
2022-12-09T16:23:10.100Z,-5.37
2022-12-09T16:25:42.392Z,-5.42
2022-12-09T16:28:28.918Z,-5.42
2022-12-09T16:31:03.208Z,-5.41
2022-12-09T16:33:35.258Z,-5.44
2022-12-09T16:36:07.233Z,-5.46
2022-12-09T16:38:36.884Z,-5.50
2022-12-09T16:41:11.584Z,-5.55
2022-12-09T16:43:56.762Z,-5.58
2022-12-09T16:46:26.687Z,-5.63
2022-12-09T16:48:53.792Z,-5.73
2022-12-09T16:51:24.802Z,-5.74
2022-12-09T16:53:52.871Z,-5.77
2022-12-09T16:56:25.654Z,-5.77
2022-12-09T16:58:53.563Z,-5.68
2022-12-09T17:01:23.850Z,-5.58
2022-12-09T17:03:52.810Z,-5.54
2022-12-09T17:06:22.064Z,-5.59
2022-12-09T17:08:49.089Z,-5.45
2022-12-09T17:11:17.355Z,-5.41
2022-12-09T17:13:44.641Z,-5.39
2022-12-09T17:16:11.759Z,-5.36
2022-12-09T17:18:39.730Z,-5.33
2022-12-09T17:21:13.336Z,-5.35
2022-12-09T17:23:41.956Z,-5.30
2022-12-09T17:26:11.432Z,-5.39
2022-12-09T17:28:41.773Z,-5.31
2022-12-09T17:31:11.253Z,-5.26
2022-12-09T17:33:38.543Z,-5.22
2022-12-09T17:36:06.663Z,-5.25
2022-12-09T17:38:36.194Z,-5.17
2022-12-09T17:41:05.359Z,-5.23
2022-12-09T17:43:33.872Z,-5.15
2022-12-09T17:48:43.778Z,-5.15
2022-12-09T17:51:15.444Z,-5.17
2022-12-09T17:53:43.169Z,-5.10
2022-12-09T17:56:36.182Z,-5.11
2022-12-09T17:59:07.502Z,-5.16
2022-12-09T18:01:36.434Z,-5.15
2022-12-09T18:04:10.290Z,-5.13
2022-12-09T18:06:39.821Z,-5.16
2022-12-09T18:09:09.354Z,-5.14
2022-12-09T18:11:36.855Z,-5.09
2022-12-09T18:14:04.409Z,-5.06
2022-12-09T18:16:32.546Z,-5.03
2022-12-09T18:19:09.954Z,-4.98
2022-12-09T18:21:37.007Z,-5.02
2022-12-09T18:24:04.418Z,-5.08
2022-12-09T18:26:36.658Z,-5.05
2022-12-09T18:29:06.753Z,-5.03
2022-12-09T18:31:36.449Z,-5.01
2022-12-09T18:34:09.394Z,-5.02
2022-12-09T18:36:37.949Z,-5.05
2022-12-09T18:39:05.616Z,-5.01
2022-12-09T18:41:33.400Z,-4.99
2022-12-09T18:44:05.512Z,-4.96
2022-12-09T18:46:37.852Z,-4.86
2022-12-09T18:49:23.760Z,-4.84
2022-12-09T18:51:52.818Z,-4.86
2022-12-09T18:54:24.766Z,-4.87
2022-12-09T18:56:52.259Z,-4.92
2022-12-09T18:59:22.282Z,-4.84
2022-12-09T19:01:49.812Z,-4.80
2022-12-09T19:04:19.282Z,-4.82
2022-12-09T19:06:48.166Z,-4.86
2022-12-09T19:09:27.111Z,-4.84
2022-12-09T19:11:55.784Z,-4.88
2022-12-09T19:14:23.308Z,-4.85
2022-12-09T19:16:51.378Z,-4.90
2022-12-09T19:19:23.917Z,-4.93
2022-12-09T19:21:53.368Z,-4.96
2022-12-09T19:24:28.316Z,-4.96
2022-12-09T19:26:57.914Z,-5.00
2022-12-09T19:29:25.848Z,-4.98
2022-12-09T19:31:54.059Z,-4.96
2022-12-09T19:34:29.088Z,-4.90
2022-12-09T19:37:00.297Z,-4.87
2022-12-09T19:39:34.256Z,-4.87
2022-12-09T19:42:02.267Z,-4.87
2022-12-09T19:45:00.955Z,-4.90
2022-12-09T19:47:17.051Z,-4.92
2022-12-09T19:49:44.629Z,-4.90
2022-12-09T19:52:12.662Z,-4.91
2022-12-09T19:54:39.898Z,-4.91
2022-12-09T19:57:07.199Z,-4.96
2022-12-09T19:59:35.607Z,-4.91
2022-12-09T20:02:02.716Z,-4.91
2022-12-09T20:07:35.922Z,-5.05
2022-12-09T20:10:02.851Z,-4.89
2022-12-09T20:12:30.767Z,-4.95
2022-12-09T20:17:41.371Z,-4.96
2022-12-09T20:20:09.324Z,-4.98
2022-12-09T20:22:36.515Z,-5.01
2022-12-09T20:25:03.436Z,-5.06
2022-12-09T20:27:30.728Z,-5.13
2022-12-09T20:29:57.814Z,-5.09
2022-12-09T20:32:25.037Z,-5.13
2022-12-09T20:34:53.781Z,-5.12
2022-12-09T20:37:28.300Z,-5.13
2022-12-09T20:39:55.358Z,-5.09
2022-12-09T20:42:22.400Z,-5.18
2022-12-09T20:44:49.498Z,-5.10
2022-12-09T20:47:16.577Z,-5.13
2022-12-09T20:49:48.196Z,-5.28
2022-12-09T20:52:15.187Z,-5.18
2022-12-09T20:54:42.196Z,-5.15
2022-12-09T20:57:10.692Z,-5.29
2022-12-09T20:59:37.927Z,-5.29
2022-12-09T21:02:09.490Z,-5.45
2022-12-09T21:04:39.192Z,-5.34
2022-12-09T21:07:06.585Z,-5.35
2022-12-09T21:09:33.910Z,-5.41
2022-12-09T21:12:00.870Z,-5.33
2022-12-09T21:14:33.014Z,-5.28
2022-12-09T21:17:00.346Z,-5.25
2022-12-09T21:19:30.149Z,-5.22
2022-12-09T21:21:57.211Z,-5.20
2022-12-09T21:24:24.823Z,-5.27
2022-12-09T21:26:56.078Z,-5.23
2022-12-09T21:29:29.879Z,-5.19
2022-12-09T21:31:59.405Z,-5.24
2022-12-09T21:34:27.388Z,-5.21
2022-12-09T21:36:55.676Z,-5.20
2022-12-09T21:39:22.756Z,-5.19
2022-12-09T21:41:50.210Z,-5.11
2022-12-09T21:44:19.126Z,-5.09
2022-12-09T21:46:46.280Z,-5.05
2022-12-09T21:49:13.736Z,-5.07
2022-12-09T21:51:41.165Z,-4.93
2022-12-09T21:54:08.376Z,-4.89
2022-12-09T21:56:39.346Z,-4.92
2022-12-09T21:59:07.495Z,-4.99
2022-12-09T22:01:38.058Z,-4.97
2022-12-09T22:04:08.484Z,-4.99
2022-12-09T22:06:35.809Z,-5.04
2022-12-09T22:09:04.331Z,-5.07
2022-12-09T22:11:34.772Z,-5.05
2022-12-09T22:14:02.546Z,-5.03
2022-12-09T22:16:32.760Z,-4.98
2022-12-09T22:19:00.983Z,-5.00
2022-12-09T22:21:30.004Z,-5.01
2022-12-09T22:23:59.452Z,-5.00
2022-12-09T22:26:27.013Z,-5.00
2022-12-09T22:28:54.755Z,-5.03
2022-12-09T22:31:30.583Z,-5.08
2022-12-09T22:34:01.091Z,-5.03
2022-12-09T22:36:29.678Z,-5.00
2022-12-09T22:38:56.730Z,-5.08
2022-12-09T22:41:25.846Z,-5.14
2022-12-09T22:43:54.636Z,-5.11
2022-12-09T22:46:30.348Z,-5.11
2022-12-09T22:49:00.819Z,-5.06
2022-12-09T22:51:29.582Z,-5.02
2022-12-09T22:53:57.553Z,-5.07
2022-12-09T22:56:25.446Z,-4.98
2022-12-09T22:58:52.637Z,-4.94
2022-12-09T23:01:32.971Z,-4.91
2022-12-09T23:04:00.502Z,-4.87
2022-12-09T23:06:28.561Z,-4.93
2022-12-09T23:08:56.203Z,-4.98
2022-12-09T23:11:25.675Z,-5.02
2022-12-09T23:13:53.301Z,-4.92
2022-12-09T23:16:24.950Z,-5.02
2022-12-09T23:18:53.018Z,-4.92
2022-12-09T23:21:23.871Z,-4.95
2022-12-09T23:23:59.360Z,-4.99
2022-12-09T23:26:28.609Z,-5.16
2022-12-09T23:28:58.999Z,-5.16
2022-12-09T23:31:32.372Z,-5.03
2022-12-09T23:34:00.824Z,-5.10
2022-12-09T23:36:31.247Z,-5.08
2022-12-09T23:38:58.860Z,-5.01
2022-12-09T23:41:26.116Z,-5.06
2022-12-09T23:43:54.077Z,-4.96
2022-12-09T23:46:23.954Z,-4.91
2022-12-09T23:48:52.245Z,-4.96
2022-12-09T23:51:25.193Z,-5.03
2022-12-09T23:53:54.560Z,-5.08
2022-12-09T23:56:23.921Z,-4.88
2022-12-09T23:59:04.985Z,-4.84
